Time;durP1;ratioP1;P1;durP2;ratioP2;P2;SDS_P1;SDS_P2;PMS_P1;PMS_P2;Temp;Humidity;BMP_temperature;BMP_pressure;BME280_temperature;BME280_humidity;BME280_pressure;Samples;Min_cycle;Max_cycle;Signal;HPM_P1;HPM_P2
2022/03/11 00:02:07;;;;;;;12.23;8.55;;;7.70;99.90;;;;;;5028674;28;20026;-58
2022/03/11 00:04:33;;;;;;;14.18;8.20;;;7.70;99.90;;;;;;5029786;28;20064;-60
2022/03/11 00:06:58;;;;;;;13.65;8.48;;;7.70;99.90;;;;;;5021506;28;20029;-58
2022/03/11 00:09:24;;;;;;;12.35;8.27;;;7.80;99.90;;;;;;5025525;28;20149;-58
2022/03/11 00:11:49;;;;;;;11.35;7.95;;;7.70;99.90;;;;;;5027557;28;20026;-58
2022/03/11 00:14:15;;;;;;;14.20;7.60;;;7.70;99.90;;;;;;5026621;28;20014;-59
2022/03/11 00:16:41;;;;;;;11.65;7.65;;;7.70;99.90;;;;;;5029764;28;20040;-59
2022/03/11 00:19:06;;;;;;;13.32;7.13;;;7.60;99.90;;;;;;5031771;28;20099;-58
2022/03/11 00:21:32;;;;;;;11.55;7.68;;;7.70;99.90;;;;;;5033918;28;20029;-58
2022/03/11 00:23:58;;;;;;;13.43;8.00;;;7.60;99.90;;;;;;5024524;28;20128;-59
2022/03/11 00:26:24;;;;;;;14.45;7.78;;;7.60;99.90;;;;;;5028666;28;20457;-59
2022/03/11 00:28:50;;;;;;;12.93;7.93;;;7.70;99.90;;;;;;5030645;28;20543;-57
2022/03/11 00:31:15;;;;;;;10.68;7.55;;;7.70;99.90;;;;;;5037138;28;20120;-58
2022/03/11 00:33:41;;;;;;;13.55;7.43;;;7.60;99.90;;;;;;5021933;28;20358;-58
2022/03/11 00:36:06;;;;;;;13.63;8.45;;;7.60;99.90;;;;;;5028628;28;20025;-58
2022/03/11 00:38:33;;;;;;;12.52;7.13;;;7.60;99.90;;;;;;5028208;28;20037;-58
2022/03/11 00:40:58;;;;;;;13.60;7.72;;;7.70;99.90;;;;;;5037118;28;20476;-58
2022/03/11 00:43:25;;;;;;;11.18;7.70;;;7.70;99.90;;;;;;5028990;28;20060;-57
2022/03/11 00:45:50;;;;;;;13.85;7.88;;;7.70;99.90;;;;;;5026584;28;20310;-58
2022/03/11 00:48:16;;;;;;;11.05;7.50;;;7.80;99.90;;;;;;5034323;28;20044;-58
2022/03/11 00:50:42;;;;;;;14.48;7.55;;;7.70;99.90;;;;;;5035071;28;20028;-59
2022/03/11 00:53:07;;;;;;;13.15;7.28;;;7.80;99.90;;;;;;5037124;28;20121;-59
2022/03/11 00:55:33;;;;;;;12.25;7.25;;;7.70;99.90;;;;;;5030512;28;20388;-60
2022/03/11 00:57:58;;;;;;;12.35;7.22;;;7.70;99.90;;;;;;5029098;28;20400;-58
2022/03/11 01:00:24;;;;;;;10.75;6.47;;;7.70;99.90;;;;;;5031451;28;20057;-59
2022/03/11 01:02:50;;;;;;;11.95;7.63;;;7.70;99.90;;;;;;5032329;28;20029;-58
2022/03/11 01:05:15;;;;;;;12.32;7.40;;;7.70;99.90;;;;;;5029643;28;20338;-59
2022/03/11 01:07:41;;;;;;;11.95;7.43;;;7.70;99.90;;;;;;5030708;28;20488;-58
2022/03/11 01:10:08;;;;;;;11.18;7.50;;;7.70;99.90;;;;;;5034148;28;20124;-59
2022/03/11 01:12:34;;;;;;;14.73;7.55;;;7.70;99.90;;;;;;5037317;28;20528;-58
2022/03/11 01:14:59;;;;;;;10.25;7.35;;;7.70;99.90;;;;;;5032120;28;20045;-59
2022/03/11 01:17:25;;;;;;;11.25;7.07;;;7.70;99.90;;;;;;5030139;28;20469;-59
2022/03/11 01:19:50;;;;;;;16.55;6.72;;;7.70;99.90;;;;;;5034858;28;20396;-57
2022/03/11 01:22:17;;;;;;;10.82;6.80;;;7.70;99.90;;;;;;5031211;28;20163;-57
2022/03/11 01:24:42;;;;;;;13.45;6.82;;;7.60;99.90;;;;;;5033522;28;20426;-59
2022/03/11 01:27:08;;;;;;;10.32;6.38;;;7.70;99.90;;;;;;5033696;28;20116;-58
2022/03/11 01:29:34;;;;;;;11.13;6.72;;;7.70;99.90;;;;;;5032147;28;20076;-58
2022/03/11 01:31:59;;;;;;;10.77;6.68;;;7.70;99.90;;;;;;5028603;28;20082;-59
2022/03/11 01:34:25;;;;;;;11.52;6.85;;;7.80;99.90;;;;;;5029769;28;20093;-58
2022/03/11 01:36:51;;;;;;;14.45;7.32;;;7.80;99.90;;;;;;5031530;28;20026;-59
2022/03/11 01:39:16;;;;;;;11.90;6.28;;;7.70;99.90;;;;;;5040075;28;20133;-59
2022/03/11 01:41:42;;;;;;;11.00;6.25;;;7.70;99.90;;;;;;5033010;28;20037;-59
2022/03/11 01:44:09;;;;;;;10.70;6.28;;;7.70;99.90;;;;;;5033951;28;20025;-59
2022/03/11 01:46:36;;;;;;;10.38;6.45;;;7.70;99.90;;;;;;5029550;28;20543;-58
2022/03/11 01:49:05;;;;;;;9.88;6.70;;;7.60;99.90;;;;;;5027467;28;20496;-59
2022/03/11 01:51:33;;;;;;;10.65;7.13;;;7.60;99.90;;;;;;5029810;28;20048;-59
2022/03/11 01:53:59;;;;;;;11.48;7.00;;;7.60;99.90;;;;;;5035618;28;20439;-58
2022/03/11 01:56:25;;;;;;;9.35;6.10;;;7.60;99.90;;;;;;5028701;28;20155;-58
2022/03/11 01:58:55;;;;;;;12.45;6.88;;;7.60;99.90;;;;;;5032475;28;20048;-58
2022/03/11 02:01:22;;;;;;;9.98;6.72;;;7.60;99.90;;;;;;5025283;28;20399;-58
2022/03/11 02:03:49;;;;;;;9.10;6.18;;;7.60;99.90;;;;;;5032553;28;20028;-58
2022/03/11 02:06:15;;;;;;;9.30;6.00;;;7.60;99.90;;;;;;5031329;28;20044;-57
2022/03/11 02:08:42;;;;;;;10.18;6.45;;;7.50;99.90;;;;;;5034620;28;20016;-59
2022/03/11 02:11:08;;;;;;;10.18;6.60;;;7.50;99.90;;;;;;5035922;28;20468;-58
2022/03/11 02:13:43;;;;;;;12.10;6.60;;;7.60;99.90;;;;;;5028300;28;20385;-59
2022/03/11 02:16:15;;;;;;;12.35;7.22;;;7.60;99.90;;;;;;5030157;28;20025;-58
2022/03/11 02:18:41;;;;;;;11.45;6.93;;;7.50;99.90;;;;;;5027661;28;20636;-58
2022/03/11 02:21:09;;;;;;;11.88;6.75;;;7.50;99.90;;;;;;5026631;28;20455;-59
2022/03/11 02:23:48;;;;;;;10.13;7.15;;;7.50;99.90;;;;;;5032951;28;20048;-59
2022/03/11 02:26:15;;;;;;;10.52;6.32;;;7.50;99.90;;;;;;5030488;28;20032;-59
2022/03/11 02:28:42;;;;;;;10.45;6.97;;;7.50;99.90;;;;;;5028277;28;20025;-59
2022/03/11 02:31:08;;;;;;;12.38;7.45;;;7.50;99.90;;;;;;5027812;28;20041;-58
2022/03/11 02:33:33;;;;;;;10.20;7.00;;;7.40;99.90;;;;;;5032633;28;20132;-59
2022/03/11 02:35:59;;;;;;;12.85;7.35;;;7.40;99.90;;;;;;5030230;28;20082;-59
2022/03/11 02:38:25;;;;;;;10.65;6.75;;;7.40;99.90;;;;;;5032937;28;20029;-59
2022/03/11 02:40:51;;;;;;;12.07;7.35;;;7.40;99.90;;;;;;5030241;28;20504;-59
2022/03/11 02:43:17;;;;;;;13.25;7.57;;;7.40;99.90;;;;;;5032138;28;20032;-57
2022/03/11 02:45:43;;;;;;;13.32;7.57;;;7.40;99.90;;;;;;5030464;28;20029;-58
2022/03/11 02:48:08;;;;;;;12.70;7.43;;;7.40;99.90;;;;;;5027868;28;20048;-58
2022/03/11 02:50:34;;;;;;;9.65;6.85;;;7.40;99.90;;;;;;5036984;28;20082;-58
2022/03/11 02:53:00;;;;;;;11.25;6.95;;;7.50;99.90;;;;;;5027911;28;20370;-59
2022/03/11 02:55:25;;;;;;;11.35;6.97;;;7.50;99.90;;;;;;5028111;28;20507;-57
2022/03/11 02:57:51;;;;;;;12.90;6.97;;;7.50;99.90;;;;;;5022818;28;20075;-57
2022/03/11 03:00:17;;;;;;;12.85;7.05;;;7.50;99.90;;;;;;5033432;28;20032;-58
2022/03/11 03:02:42;;;;;;;11.80;7.32;;;7.50;99.90;;;;;;5032953;28;20108;-57
2022/03/11 03:05:09;;;;;;;11.32;6.88;;;7.50;99.90;;;;;;5028715;28;20108;-58
2022/03/11 03:07:34;;;;;;;10.63;7.30;;;7.30;99.90;;;;;;5026095;28;20389;-57
2022/03/11 03:10:00;;;;;;;13.77;7.72;;;7.40;99.90;;;;;;5026411;28;20481;-58
2022/03/11 03:12:26;;;;;;;12.05;7.47;;;7.30;99.90;;;;;;5032154;28;20029;-57
2022/03/11 03:14:52;;;;;;;14.13;7.40;;;7.40;99.90;;;;;;5029148;28;20025;-58
2022/03/11 03:17:18;;;;;;;14.00;7.93;;;7.30;99.90;;;;;;5030579;28;20373;-58
2022/03/11 03:19:44;;;;;;;10.57;7.30;;;7.30;99.90;;;;;;5030217;28;20021;-59
2022/03/11 03:22:10;;;;;;;11.50;7.45;;;7.40;99.90;;;;;;5023154;28;20025;-58
2022/03/11 03:24:37;;;;;;;13.05;7.68;;;7.30;99.90;;;;;;5030639;28;20040;-57
2022/03/11 03:27:03;;;;;;;11.88;7.97;;;7.30;99.90;;;;;;5035349;28;20457;-58
2022/03/11 03:29:29;;;;;;;15.52;7.97;;;7.20;99.90;;;;;;5031534;28;20033;-58
2022/03/11 03:32:00;;;;;;;13.45;7.88;;;7.20;99.90;;;;;;5030173;28;20055;-58
2022/03/11 03:34:31;;;;;;;13.10;7.57;;;7.20;99.90;;;;;;5033842;28;20026;-57
2022/03/11 03:36:58;;;;;;;11.98;7.55;;;7.30;99.90;;;;;;5034565;28;20029;-58
2022/03/11 03:39:24;;;;;;;12.98;7.13;;;7.30;99.90;;;;;;5036223;28;20476;-57
2022/03/11 03:41:50;;;;;;;12.65;7.55;;;7.20;99.90;;;;;;5030773;28;20476;-57
2022/03/11 03:44:16;;;;;;;15.35;8.07;;;7.20;99.90;;;;;;5029607;28;20026;-57
2022/03/11 03:46:42;;;;;;;12.57;8.10;;;7.10;99.90;;;;;;5027340;28;20151;-58
2022/03/11 03:49:07;;;;;;;12.98;7.97;;;7.00;99.90;;;;;;5030139;28;20041;-58
2022/03/11 03:51:33;;;;;;;11.90;7.78;;;7.10;99.90;;;;;;5031285;28;20720;-58
2022/03/11 03:53:59;;;;;;;15.63;8.68;;;7.20;99.90;;;;;;5030829;28;20029;-58
2022/03/11 03:56:24;;;;;;;13.25;8.45;;;7.20;99.90;;;;;;5033925;28;20017;-57
2022/03/11 03:58:50;;;;;;;13.07;7.72;;;7.10;99.90;;;;;;5029417;28;20018;-57
2022/03/11 04:01:15;;;;;;;13.55;7.85;;;7.10;99.90;;;;;;5032578;28;20129;-58
2022/03/11 04:03:41;;;;;;;13.60;8.20;;;7.10;99.90;;;;;;5030551;28;20025;-57
2022/03/11 04:06:06;;;;;;;12.88;7.82;;;7.10;99.90;;;;;;5034575;28;20437;-58
2022/03/11 04:08:32;;;;;;;14.25;8.10;;;7.00;99.90;;;;;;5028829;28;20036;-58
2022/03/11 04:10:58;;;;;;;16.15;8.77;;;7.00;99.90;;;;;;5032930;28;20029;-58
2022/03/11 04:13:24;;;;;;;13.73;7.90;;;7.10;99.90;;;;;;5026883;28;20235;-57
2022/03/11 04:15:49;;;;;;;16.65;8.45;;;7.10;99.90;;;;;;5031019;28;20037;-58
2022/03/11 04:18:15;;;;;;;12.30;7.88;;;7.00;99.90;;;;;;5028845;28;20044;-58
2022/03/11 04:20:40;;;;;;;12.55;7.72;;;7.00;99.90;;;;;;5039480;28;20119;-59
2022/03/11 04:23:07;;;;;;;15.50;8.02;;;7.00;99.90;;;;;;5028460;28;20029;-58
2022/03/11 04:25:33;;;;;;;12.88;7.78;;;6.90;99.90;;;;;;5025866;28;20037;-58
2022/03/11 04:27:58;;;;;;;13.23;8.30;;;6.90;99.90;;;;;;5029573;28;20040;-57
2022/03/11 04:30:24;;;;;;;13.38;8.30;;;6.90;99.90;;;;;;5040456;28;20025;-58
2022/03/11 04:32:50;;;;;;;15.57;8.52;;;6.80;99.90;;;;;;5042110;28;20052;-57
2022/03/11 04:35:15;;;;;;;13.85;8.68;;;6.80;99.90;;;;;;5029845;28;20036;-58
2022/03/11 04:37:41;;;;;;;14.02;7.72;;;6.80;99.90;;;;;;5029933;28;20057;-58
2022/03/11 04:40:07;;;;;;;15.05;9.07;;;6.90;99.90;;;;;;5030879;28;20435;-58
2022/03/11 04:42:33;;;;;;;15.70;8.82;;;6.80;99.90;;;;;;5034825;28;20037;-57
2022/03/11 04:44:58;;;;;;;14.82;8.55;;;6.70;99.90;;;;;;5032664;28;20052;-58
2022/03/11 04:47:24;;;;;;;17.23;8.93;;;6.70;99.90;;;;;;5031845;28;20388;-58
2022/03/11 04:49:50;;;;;;;15.20;8.60;;;6.70;99.90;;;;;;5032044;28;20112;-57
2022/03/11 04:52:15;;;;;;;13.50;8.77;;;6.80;99.90;;;;;;5032290;28;20033;-58
2022/03/11 04:54:41;;;;;;;15.57;8.73;;;6.80;99.90;;;;;;5036671;28;20025;-57
2022/03/11 04:57:06;;;;;;;13.57;8.68;;;6.80;99.90;;;;;;5027055;28;20029;-58
2022/03/11 04:59:32;;;;;;;17.08;8.50;;;6.80;99.90;;;;;;5031177;28;20358;-58
2022/03/11 05:01:58;;;;;;;14.95;8.77;;;6.70;99.90;;;;;;5037302;28;20030;-57
2022/03/11 05:04:23;;;;;;;16.15;8.90;;;6.70;99.90;;;;;;5035868;28;20056;-57
2022/03/11 05:06:49;;;;;;;15.98;9.60;;;6.60;99.90;;;;;;5033782;28;20025;-58
2022/03/11 05:09:14;;;;;;;15.45;9.25;;;6.70;99.90;;;;;;5026884;28;20663;-57
2022/03/11 05:11:40;;;;;;;15.15;9.13;;;6.70;99.90;;;;;;5027407;28;20036;-58
2022/03/11 05:14:05;;;;;;;14.55;9.13;;;6.60;99.90;;;;;;5033707;28;20033;-58
2022/03/11 05:16:31;;;;;;;14.85;8.60;;;6.60;99.90;;;;;;5029572;28;20025;-57
2022/03/11 05:18:57;;;;;;;14.65;9.38;;;6.50;99.90;;;;;;5032955;28;20029;-57
2022/03/11 05:21:22;;;;;;;19.08;10.02;;;6.50;99.90;;;;;;5032899;28;20057;-57
2022/03/11 05:23:48;;;;;;;19.23;10.27;;;6.50;99.90;;;;;;5029645;28;20107;-57
2022/03/11 05:26:26;;;;;;;18.70;10.23;;;6.50;99.90;;;;;;5023737;28;20421;-57
2022/03/11 05:28:53;;;;;;;20.27;10.27;;;6.50;99.90;;;;;;5030656;28;20029;-57
2022/03/11 05:31:19;;;;;;;17.35;10.52;;;6.50;99.90;;;;;;5035036;28;20029;-57
2022/03/11 05:33:45;;;;;;;19.25;9.82;;;6.50;99.90;;;;;;5041130;28;20033;-58
2022/03/11 05:36:10;;;;;;;19.13;10.35;;;6.60;99.90;;;;;;5027556;28;20075;-57
2022/03/11 05:38:36;;;;;;;15.02;10.50;;;6.40;99.90;;;;;;5032933;28;20281;-58
2022/03/11 05:41:01;;;;;;;16.85;10.43;;;6.40;99.90;;;;;;5032598;28;20028;-57
2022/03/11 05:43:27;;;;;;;21.80;11.18;;;6.40;99.90;;;;;;5033867;28;20031;-57
2022/03/11 05:45:52;;;;;;;16.85;10.40;;;6.40;99.90;;;;;;5029029;28;20071;-57
2022/03/11 05:48:18;;;;;;;17.23;10.77;;;6.30;99.90;;;;;;5033287;28;20024;-58
2022/03/11 05:50:43;;;;;;;16.48;10.93;;;6.40;99.90;;;;;;5030350;28;20053;-58
2022/03/11 05:53:09;;;;;;;17.15;10.77;;;6.40;99.90;;;;;;5037593;28;20036;-57
2022/03/11 05:55:34;;;;;;;17.67;10.80;;;6.40;99.90;;;;;;5030029;28;20040;-57
2022/03/11 05:58:00;;;;;;;20.65;10.90;;;6.50;99.90;;;;;;5034367;28;20411;-56
2022/03/11 06:00:25;;;;;;;19.95;12.25;;;6.40;99.90;;;;;;5033158;28;20092;-58
2022/03/11 06:02:51;;;;;;;17.85;11.15;;;6.40;99.90;;;;;;5035110;28;20393;-57
2022/03/11 06:05:16;;;;;;;22.58;12.00;;;6.40;99.90;;;;;;5034692;28;20150;-58
2022/03/11 06:07:42;;;;;;;18.45;11.18;;;6.40;99.90;;;;;;5031643;28;20033;-57
2022/03/11 06:10:08;;;;;;;18.73;11.30;;;6.30;99.90;;;;;;5029245;28;20053;-57
2022/03/11 06:12:34;;;;;;;17.85;10.70;;;6.40;99.90;;;;;;5031725;28;20025;-58
2022/03/11 06:15:00;;;;;;;18.77;11.18;;;6.30;99.90;;;;;;5033448;28;20056;-58
2022/03/11 06:17:25;;;;;;;23.95;11.93;;;6.30;99.90;;;;;;5027801;28;20112;-57
2022/03/11 06:19:51;;;;;;;19.30;11.85;;;6.30;99.90;;;;;;5033529;28;20032;-57
2022/03/11 06:22:16;;;;;;;20.30;11.68;;;6.30;99.90;;;;;;5029017;28;20044;-59
2022/03/11 06:24:42;;;;;;;20.63;11.75;;;6.30;99.90;;;;;;5034135;28;20025;-59
2022/03/11 06:27:08;;;;;;;23.05;12.35;;;6.30;99.90;;;;;;5030283;28;20030;-58
2022/03/11 06:29:33;;;;;;;20.65;12.20;;;6.30;99.90;;;;;;5034073;28;20037;-59
2022/03/11 06:31:59;;;;;;;20.65;12.70;;;6.30;99.90;;;;;;5032383;28;20061;-58
2022/03/11 06:34:24;;;;;;;25.42;13.27;;;6.30;99.90;;;;;;5028105;28;20025;-57
2022/03/11 06:36:50;;;;;;;20.58;12.52;;;6.30;99.90;;;;;;5028233;28;20025;-58
2022/03/11 06:39:15;;;;;;;20.63;12.32;;;6.30;99.90;;;;;;5037406;28;20094;-59
2022/03/11 06:41:44;;;;;;;25.20;12.40;;;6.30;99.90;;;;;;5031658;28;20095;-57
2022/03/11 06:44:09;;;;;;;19.52;12.77;;;6.60;99.90;;;;;;5022701;28;20232;-58
2022/03/11 06:46:35;;;;;;;19.45;12.18;;;6.60;99.90;;;;;;5030595;28;20029;-58
2022/03/11 06:49:01;;;;;;;24.70;12.90;;;6.60;99.90;;;;;;5030503;28;20025;-59
2022/03/11 06:51:26;;;;;;;20.17;13.52;;;6.60;99.90;;;;;;5027982;28;20037;-58
2022/03/11 06:53:52;;;;;;;21.42;13.23;;;6.60;99.90;;;;;;5028355;28;20385;-57
2022/03/11 06:56:17;;;;;;;24.63;13.13;;;6.50;99.90;;;;;;5028870;28;20079;-58
2022/03/11 06:58:43;;;;;;;24.98;13.02;;;6.50;99.90;;;;;;5032426;28;20024;-59
2022/03/11 07:01:09;;;;;;;22.92;13.07;;;6.50;99.90;;;;;;5034927;28;20025;-58
2022/03/11 07:03:34;;;;;;;21.30;12.70;;;6.50;99.90;;;;;;5032053;28;20507;-58
2022/03/11 07:06:00;;;;;;;23.15;13.60;;;6.50;99.90;;;;;;5030017;28;20460;-56
2022/03/11 07:08:25;;;;;;;20.55;12.70;;;6.60;99.90;;;;;;5032601;28;20104;-57
2022/03/11 07:10:51;;;;;;;21.67;13.25;;;6.50;99.90;;;;;;5023282;28;20030;-58
2022/03/11 07:13:17;;;;;;;25.48;14.55;;;6.60;99.90;;;;;;5025729;28;20026;-58
2022/03/11 07:15:43;;;;;;;23.05;15.05;;;6.50;99.90;;;;;;5028265;28;20082;-58
2022/03/11 07:18:09;;;;;;;20.95;13.82;;;6.60;99.90;;;;;;5017615;28;20028;-58
2022/03/11 07:20:34;;;;;;;23.92;12.82;;;6.70;99.90;;;;;;5021577;28;20754;-58
2022/03/11 07:23:00;;;;;;;26.17;14.05;;;6.60;99.90;;;;;;5020414;28;20059;-58
2022/03/11 07:25:26;;;;;;;23.42;13.52;;;6.70;99.90;;;;;;5022449;28;20088;-57
2022/03/11 07:27:52;;;;;;;26.77;14.07;;;6.70;99.90;;;;;;5021777;28;20476;-58
2022/03/11 07:30:18;;;;;;;21.90;14.68;;;6.70;99.90;;;;;;5023752;28;20091;-58
2022/03/11 07:32:45;;;;;;;25.08;14.70;;;6.80;99.90;;;;;;5027611;28;20098;-56
2022/03/11 07:35:12;;;;;;;24.77;14.40;;;6.80;99.90;;;;;;5027003;28;20041;-59
2022/03/11 07:37:39;;;;;;;27.92;14.77;;;6.70;99.90;;;;;;5025362;28;20033;-58
2022/03/11 07:40:05;;;;;;;21.98;14.43;;;6.70;99.90;;;;;;5030156;28;20530;-57
2022/03/11 07:42:31;;;;;;;23.15;14.65;;;6.80;99.90;;;;;;5030582;28;20031;-57
2022/03/11 07:44:56;;;;;;;23.10;15.02;;;6.90;99.90;;;;;;5024590;28;20448;-57
2022/03/11 07:47:22;;;;;;;23.00;15.43;;;6.90;99.90;;;;;;5027158;28;20116;-58
2022/03/11 07:49:48;;;;;;;26.35;14.57;;;6.90;99.90;;;;;;5029241;28;20439;-58
2022/03/11 07:52:15;;;;;;;23.88;14.50;;;7.00;99.90;;;;;;5027977;28;20044;-58
2022/03/11 07:54:44;;;;;;;24.27;15.23;;;7.00;99.90;;;;;;5026510;28;20041;-58
2022/03/11 07:57:10;;;;;;;28.80;13.88;;;7.00;99.90;;;;;;5029163;28;20504;-57
2022/03/11 07:59:37;;;;;;;24.67;14.82;;;7.10;99.90;;;;;;5022395;28;20022;-59
2022/03/11 08:02:06;;;;;;;22.42;14.65;;;7.10;99.90;;;;;;5021119;28;20078;-58
2022/03/11 08:04:32;;;;;;;24.10;14.98;;;7.10;99.90;;;;;;5030921;28;20041;-58
2022/03/11 08:07:06;;;;;;;25.88;15.45;;;7.20;99.90;;;;;;5025445;28;20081;-58
2022/03/11 08:09:33;;;;;;;24.77;14.95;;;7.30;99.90;;;;;;5028281;28;20087;-58
2022/03/11 08:11:58;;;;;;;25.13;14.80;;;7.40;99.90;;;;;;5023610;28;20044;-58
2022/03/11 08:14:24;;;;;;;23.95;15.05;;;7.40;99.90;;;;;;5029533;28;20033;-58
2022/03/11 08:16:49;;;;;;;27.63;15.70;;;7.40;99.90;;;;;;5023872;28;20531;-58
2022/03/11 08:19:15;;;;;;;24.13;14.73;;;7.40;99.90;;;;;;5031605;28;20040;-58
2022/03/11 08:21:41;;;;;;;25.27;15.27;;;7.40;99.90;;;;;;5024604;28;20037;-58
2022/03/11 08:24:07;;;;;;;24.85;15.45;;;7.40;99.90;;;;;;5028178;28;20033;-57
2022/03/11 08:26:32;;;;;;;21.00;14.52;;;7.60;99.90;;;;;;5030773;28;20064;-58
2022/03/11 08:28:58;;;;;;;22.60;14.68;;;7.60;99.90;;;;;;5023714;28;20052;-58
2022/03/11 08:31:24;;;;;;;25.20;15.13;;;7.70;99.90;;;;;;5022976;28;20033;-59
2022/03/11 08:33:49;;;;;;;22.83;14.65;;;7.70;99.90;;;;;;5023427;28;20034;-58
2022/03/11 08:36:15;;;;;;;21.75;14.73;;;7.70;99.90;;;;;;5023117;28;20022;-59
2022/03/11 08:38:42;;;;;;;26.25;14.88;;;7.70;99.90;;;;;;5025079;28;20017;-58
2022/03/11 08:41:08;;;;;;;23.77;15.82;;;7.70;99.90;;;;;;5025608;28;20033;-58
2022/03/11 08:43:38;;;;;;;26.05;14.18;;;7.80;99.90;;;;;;5031277;28;20079;-59
2022/03/11 08:46:04;;;;;;;28.45;15.20;;;7.90;99.90;;;;;;5033549;28;20662;-59
2022/03/11 08:48:30;;;;;;;22.98;14.90;;;7.90;99.90;;;;;;5026761;28;20024;-59
2022/03/11 08:50:56;;;;;;;25.00;14.75;;;8.00;99.90;;;;;;5039597;28;20104;-58
2022/03/11 08:53:22;;;;;;;21.70;14.75;;;8.10;99.90;;;;;;5025216;28;20147;-58
2022/03/11 08:55:47;;;;;;;27.95;15.00;;;8.20;99.90;;;;;;5020839;28;20028;-58
2022/03/11 08:58:13;;;;;;;24.55;15.43;;;8.10;99.90;;;;;;5026303;28;20429;-59
2022/03/11 09:00:41;;;;;;;25.95;15.10;;;8.20;99.90;;;;;;5025404;28;20160;-58
2022/03/11 09:03:07;;;;;;;21.80;14.65;;;8.30;99.90;;;;;;5023492;28;20178;-58
2022/03/11 09:05:33;;;;;;;24.42;14.65;;;8.30;99.90;;;;;;5024919;28;20568;-57
2022/03/11 09:07:59;;;;;;;24.27;15.45;;;8.30;99.90;;;;;;5024055;28;20516;-58
2022/03/11 09:10:25;;;;;;;24.55;14.70;;;8.30;99.90;;;;;;5021705;28;20143;-58
2022/03/11 09:12:50;;;;;;;23.95;15.45;;;8.40;99.90;;;;;;5025500;28;20515;-59
2022/03/11 09:15:16;;;;;;;24.52;14.63;;;8.40;99.90;;;;;;5028372;28;20087;-58
2022/03/11 09:17:44;;;;;;;20.63;13.70;;;8.40;99.90;;;;;;5026496;28;20052;-58
2022/03/11 09:20:12;;;;;;;25.02;15.35;;;8.40;99.90;;;;;;5027295;28;20614;-59
2022/03/11 09:22:39;;;;;;;23.60;14.68;;;8.50;99.90;;;;;;5028419;28;20250;-58
2022/03/11 09:25:07;;;;;;;24.45;15.07;;;8.70;99.90;;;;;;5032067;28;20106;-56
2022/03/11 09:27:33;;;;;;;21.88;14.13;;;8.70;99.90;;;;;;5028856;28;20300;-57
2022/03/11 09:29:58;;;;;;;20.77;14.38;;;8.70;99.90;;;;;;5030089;28;20020;-57
2022/03/11 09:32:25;;;;;;;25.30;14.90;;;8.80;99.90;;;;;;5027731;28;20038;-57
2022/03/11 09:34:51;;;;;;;24.20;15.00;;;8.80;99.90;;;;;;5029913;28;20362;-58
2022/03/11 09:37:17;;;;;;;21.90;14.18;;;8.70;99.90;;;;;;5033601;28;20025;-58
2022/03/11 09:39:43;;;;;;;27.00;14.57;;;8.80;99.90;;;;;;5028878;28;20056;-58
2022/03/11 09:42:09;;;;;;;22.27;14.55;;;8.80;99.90;;;;;;5028144;28;20044;-57
2022/03/11 09:44:35;;;;;;;22.17;14.55;;;8.90;99.90;;;;;;5028909;28;20392;-57
2022/03/11 09:47:01;;;;;;;23.63;14.50;;;8.90;99.90;;;;;;5028375;28;20473;-57
2022/03/11 09:49:33;;;;;;;25.75;14.38;;;8.90;99.90;;;;;;5031261;28;20041;-58
2022/03/11 09:52:00;;;;;;;25.70;15.10;;;8.90;99.90;;;;;;5021825;28;20087;-58
2022/03/11 09:54:25;;;;;;;23.88;14.32;;;9.00;99.90;;;;;;5025752;28;20032;-58
2022/03/11 09:56:51;;;;;;;26.13;14.25;;;9.00;99.90;;;;;;5028308;28;20033;-56
2022/03/11 09:59:18;;;;;;;21.40;14.45;;;9.20;99.90;;;;;;5025478;28;20021;-58
2022/03/11 10:01:43;;;;;;;23.20;13.90;;;9.30;99.90;;;;;;5032934;28;20096;-57
2022/03/11 10:04:10;;;;;;;23.05;15.10;;;9.30;99.90;;;;;;5030912;28;20594;-59
2022/03/11 10:06:46;;;;;;;23.42;14.93;;;9.30;99.90;;;;;;5027317;28;20055;-56
2022/03/11 10:09:18;;;;;;;25.02;14.00;;;9.40;99.90;;;;;;5025778;28;20047;-58
2022/03/11 10:11:46;;;;;;;20.20;14.65;;;9.50;99.90;;;;;;5030295;28;20407;-58
2022/03/11 10:14:13;;;;;;;23.90;14.00;;;9.70;99.90;;;;;;5030214;28;20021;-58
2022/03/11 10:16:40;;;;;;;20.75;14.07;;;9.70;99.90;;;;;;5029611;28;20046;-57
2022/03/11 10:19:10;;;;;;;23.98;14.55;;;9.70;99.90;;;;;;5027574;28;20013;-58
2022/03/11 10:21:38;;;;;;;27.33;15.55;;;9.80;99.90;;;;;;5024789;28;20017;-59
2022/03/11 10:24:06;;;;;;;24.60;15.02;;;9.90;99.90;;;;;;5025600;28;20044;-59
2022/03/11 10:26:41;;;;;;;26.40;14.07;;;10.00;99.90;;;;;;5024893;28;20041;-59
2022/03/11 10:29:13;;;;;;;23.67;14.73;;;9.90;99.90;;;;;;5025513;28;20112;-57
2022/03/11 10:31:42;;;;;;;23.73;15.15;;;9.80;99.90;;;;;;5027572;28;20024;-58
2022/03/11 10:34:15;;;;;;;20.65;14.77;;;9.80;99.90;;;;;;5030297;28;20025;-57
2022/03/11 10:36:53;;;;;;;23.58;14.77;;;9.90;99.90;;;;;;5026419;28;20122;-57
2022/03/11 10:39:31;;;;;;;25.88;14.63;;;10.00;99.90;;;;;;5029012;28;20102;-58
2022/03/11 10:41:59;;;;;;;20.05;14.23;;;10.00;99.90;;;;;;5025494;28;20205;-59
2022/03/11 10:44:27;;;;;;;22.83;15.05;;;10.00;99.90;;;;;;5028744;28;20036;-58
2022/03/11 10:46:56;;;;;;;22.48;13.93;;;10.00;99.90;;;;;;5026047;28;20055;-57
2022/03/11 10:49:26;;;;;;;22.17;14.48;;;10.10;99.90;;;;;;5028550;28;20064;-57
2022/03/11 10:51:54;;;;;;;20.80;14.43;;;10.10;99.90;;;;;;5032003;28;20426;-58
2022/03/11 10:54:23;;;;;;;24.52;15.00;;;10.10;99.90;;;;;;5024223;28;20021;-58
2022/03/11 10:56:49;;;;;;;21.20;15.05;;;10.10;99.90;;;;;;5028354;28;20063;-57
2022/03/11 10:59:30;;;;;;;23.33;14.77;;;10.20;99.90;;;;;;5029840;28;20053;-57
2022/03/11 11:01:57;;;;;;;28.05;14.77;;;10.10;99.90;;;;;;5029421;28;20037;-57
2022/03/11 11:04:24;;;;;;;21.45;14.35;;;10.20;99.90;;;;;;5028928;28;20629;-56
2022/03/11 11:06:50;;;;;;;22.40;14.70;;;10.30;99.90;;;;;;5026741;28;20064;-58
2022/03/11 11:09:17;;;;;;;25.20;14.45;;;;;;;;;;5024560;28;20065;-57
2022/03/11 11:11:44;;;;;;;20.70;14.15;;;10.30;99.90;;;;;;5022208;28;20530;-57
2022/03/11 11:14:11;;;;;;;25.65;15.25;;;10.40;99.90;;;;;;5027921;28;20428;-57
2022/03/11 11:16:48;;;;;;;22.80;14.52;;;10.50;99.90;;;;;;5027385;28;20086;-58
2022/03/11 11:19:17;;;;;;;21.73;14.15;;;10.50;99.90;;;;;;5031170;28;20487;-57
2022/03/11 11:21:45;;;;;;;20.65;13.88;;;10.50;99.90;;;;;;5027759;28;20025;-57
2022/03/11 11:24:19;;;;;;;22.88;14.20;;;10.60;99.90;;;;;;5027918;28;20646;-58
2022/03/11 11:26:56;;;;;;;22.20;14.23;;;10.60;99.90;;;;;;5024841;28;20108;-58
2022/03/11 11:29:28;;;;;;;21.00;13.90;;;10.60;99.90;;;;;;5019800;28;20469;-58
2022/03/11 11:31:54;;;;;;;23.83;14.15;;;10.60;99.90;;;;;;5026081;28;20025;-57
2022/03/11 11:34:27;;;;;;;21.27;13.82;;;10.70;99.90;;;;;;5025364;28;20445;-58
2022/03/11 11:36:53;;;;;;;20.15;13.52;;;10.70;99.90;;;;;;5025224;28;20063;-56
2022/03/11 11:39:19;;;;;;;22.30;13.65;;;10.70;99.90;;;;;;5026188;28;20506;-57
2022/03/11 11:41:54;;;;;;;20.83;14.25;;;10.70;99.90;;;;;;5021536;28;20100;-58
2022/03/11 11:44:32;;;;;;;26.52;13.80;;;10.90;99.90;;;;;;5027626;28;20910;-57
2022/03/11 11:47:31;;;;;;;20.92;12.88;;;10.90;99.90;;;;;;5021734;28;20181;-58
2022/03/11 11:49:57;;;;;;;20.92;13.38;;;10.90;99.90;;;;;;5023396;28;20045;-58
2022/03/11 11:52:35;;;;;;;21.50;14.93;;;10.90;99.90;;;;;;5022368;28;20942;-57
2022/03/11 11:55:19;;;;;;;23.08;14.77;;;10.90;99.90;;;;;;5019853;28;20056;-60
2022/03/11 11:57:50;;;;;;;19.23;13.55;;;11.00;99.90;;;;;;5022444;28;20437;-58
2022/03/11 12:00:34;;;;;;;21.02;14.13;;;11.10;99.90;;;;;;5028714;28;20104;-58
2022/03/11 12:03:00;;;;;;;20.73;13.60;;;11.10;99.90;;;;;;5027253;28;20113;-57
2022/03/11 12:05:48;;;;;;;21.45;14.32;;;11.20;99.90;;;;;;5029801;28;20219;-58
2022/03/11 12:08:32;;;;;;;22.25;13.95;;;11.20;99.90;;;;;;5026125;28;20041;-57
2022/03/11 12:10:58;;;;;;;21.98;13.38;;;11.10;99.90;;;;;;5029835;28;20389;-58
2022/03/11 12:13:35;;;;;;;22.70;13.57;;;11.20;99.90;;;;;;5025273;28;20029;-59
2022/03/11 12:16:02;;;;;;;20.60;13.55;;;11.30;99.90;;;;;;5026572;28;20164;-58
2022/03/11 12:18:36;;;;;;;25.23;13.27;;;11.30;99.90;;;;;;5029134;28;20711;-59
2022/03/11 12:21:03;;;;;;;23.55;13.73;;;11.30;99.90;;;;;;5023176;28;20544;-59
2022/03/11 12:23:33;;;;;;;20.42;13.85;;;11.30;99.90;;;;;;5028829;28;20026;-59
2022/03/11 12:26:07;;;;;;;19.38;13.27;;;11.40;99.90;;;;;;5024837;28;20088;-58
2022/03/11 12:28:35;;;;;;;20.05;13.32;;;11.40;99.90;;;;;;5027382;28;20872;-59
2022/03/11 12:31:04;;;;;;;19.45;13.38;;;11.60;99.90;;;;;;5026127;28;20041;-57
2022/03/11 12:33:35;;;;;;;21.67;14.13;;;11.50;99.90;;;;;;5022579;28;20105;-58
2022/03/11 12:36:03;;;;;;;22.08;13.95;;;11.50;99.90;;;;;;5026131;28;20543;-58
2022/03/11 12:38:34;;;;;;;26.27;14.48;;;11.70;99.90;;;;;;5026161;28;20030;-58
2022/03/11 12:41:07;;;;;;;20.65;13.38;;;11.70;99.90;;;;;;5023760;28;20029;-58